Time;durP1;ratioP1;P1;durP2;ratioP2;P2;SDS_P1;SDS_P2;PMS_P1;PMS_P2;Temp;Humidity;BMP_temperature;BMP_pressure;BME280_temperature;BME280_humidity;BME280_pressure;Samples;Min_cycle;Max_cycle;Signal;HPM_P1;HPM_P2
2021/09/20 00:09:30;;;;;;;1.90;0.70;;;14.60;99.90;;;;;;20558597;28;20117;-80
2021/09/20 00:19:31;;;;;;;4.00;1.35;;;14.60;99.90;;;;;;20465118;28;20574;-80
2021/09/20 00:29:33;;;;;;;3.78;1.33;;;14.50;99.90;;;;;;20509445;28;20073;-80
2021/09/20 00:39:35;;;;;;;3.72;1.30;;;14.40;99.90;;;;;;20528534;28;20054;-80
2021/09/20 00:49:36;;;;;;;7.82;1.35;;;14.20;99.90;;;;;;20525540;28;20058;-79
2021/09/20 00:59:37;;;;;;;3.08;1.48;;;14.00;99.90;;;;;;20506885;28;20100;-80
2021/09/20 01:09:44;;;;;;;3.47;1.30;;;14.10;99.90;;;;;;20533502;28;20058;-80
2021/09/20 01:19:45;;;;;;;6.03;1.50;;;14.00;99.90;;;;;;20530501;28;20045;-80
2021/09/20 01:29:47;;;;;;;4.20;1.33;;;14.00;99.90;;;;;;20516331;28;20061;-81
2021/09/20 01:39:48;;;;;;;3.15;1.48;;;13.80;99.90;;;;;;20566804;28;20062;-81
2021/09/20 01:49:50;;;;;;;3.30;1.33;;;13.70;99.90;;;;;;20540624;28;20072;-81
2021/09/20 01:59:52;;;;;;;4.35;1.48;;;13.70;99.90;;;;;;20574440;28;20131;-81
2021/09/20 02:09:53;;;;;;;4.68;1.38;;;13.50;99.90;;;;;;20554616;28;20046;-80
2021/09/20 02:19:54;;;;;;;2.78;1.50;;;13.40;99.90;;;;;;20527357;28;20058;-81
2021/09/20 02:29:56;;;;;;;2.85;1.25;;;13.20;99.90;;;;;;20573909;28;20031;-80
2021/09/20 02:39:57;;;;;;;3.72;1.48;;;13.20;99.90;;;;;;20565790;28;20133;-81
2021/09/20 02:49:58;;;;;;;6.20;2.05;;;13.00;99.90;;;;;;20489012;28;20048;-81
2021/09/20 02:59:59;;;;;;;3.13;1.38;;;13.00;99.90;;;;;;20474048;28;20058;-81
2021/09/20 03:10:01;;;;;;;6.40;2.30;;;12.90;99.90;;;;;;20467436;28;20406;-80
2021/09/20 03:20:03;;;;;;;3.47;1.83;;;12.80;99.90;;;;;;20539775;28;20128;-80
2021/09/20 03:30:06;;;;;;;4.50;1.90;;;12.80;99.90;;;;;;20538573;28;21128;-81
2021/09/20 03:40:07;;;;;;;4.50;1.55;;;12.70;99.90;;;;;;20532233;28;20067;-81
2021/09/20 03:50:10;;;;;;;4.10;1.55;;;12.70;99.90;;;;;;20517788;28;20043;-82
2021/09/20 04:00:12;;;;;;;3.03;1.25;;;12.70;99.90;;;;;;20555306;28;20031;-81
2021/09/20 04:10:15;;;;;;;3.53;1.40;;;12.60;99.90;;;;;;20551452;28;20060;-81
2021/09/20 04:20:16;;;;;;;7.95;2.65;;;12.60;99.90;;;;;;20535843;28;20152;-82
2021/09/20 04:30:17;;;;;;;3.33;1.23;;;12.60;99.90;;;;;;20536746;28;20055;-82
2021/09/20 04:40:18;;;;;;;5.57;2.17;;;12.40;99.90;;;;;;20539074;28;20047;-81
2021/09/20 04:50:20;;;;;;;8.77;2.13;;;12.20;99.90;;;;;;20519146;28;20475;-81
2021/09/20 05:00:21;;;;;;;5.63;1.50;;;12.20;99.90;;;;;;20506030;28;20065;-81
2021/09/20 05:10:22;;;;;;;4.47;1.77;;;12.10;99.90;;;;;;20568091;28;20078;-82
2021/09/20 05:20:23;;;;;;;5.35;2.38;;;12.00;99.90;;;;;;20533082;28;20051;-82
2021/09/20 05:30:24;;;;;;;5.10;2.30;;;11.90;99.90;;;;;;20596923;28;20042;-81
2021/09/20 05:40:25;;;;;;;6.57;1.98;;;11.80;99.90;;;;;;20540942;28;20055;-80
2021/09/20 05:50:27;;;;;;;5.53;2.47;;;11.60;99.90;;;;;;20590536;28;20050;-81
2021/09/20 06:00:28;;;;;;;4.70;1.88;;;11.70;99.90;;;;;;20576386;28;20515;-81
2021/09/20 06:10:30;;;;;;;6.65;2.58;;;11.70;99.90;;;;;;20540403;28;20047;-81
2021/09/20 06:20:31;;;;;;;5.30;1.83;;;11.70;99.90;;;;;;20567187;28;20062;-81
2021/09/20 06:30:36;;;;;;;7.32;2.95;;;11.80;99.90;;;;;;20571140;28;20501;-80
2021/09/20 06:40:37;;;;;;;6.15;2.35;;;11.70;99.90;;;;;;20606725;28;20058;-80
2021/09/20 06:50:38;;;;;;;5.50;2.67;;;11.80;99.90;;;;;;20591225;28;20058;-80
2021/09/20 07:00:39;;;;;;;5.78;2.00;;;11.70;99.90;;;;;;20598753;28;20417;-82
2021/09/20 07:10:40;;;;;;;6.90;2.42;;;11.70;99.90;;;;;;20582133;28;20050;-80
2021/09/20 07:20:44;;;;;;;9.82;2.80;;;11.80;99.90;;;;;;20520702;28;20363;-81
2021/09/20 07:30:45;;;;;;;9.98;2.97;;;11.90;99.90;;;;;;20556373;28;20449;-81
2021/09/20 07:40:47;;;;;;;7.10;3.30;;;12.10;99.90;;;;;;20449528;28;20055;-82
2021/09/20 07:50:50;;;;;;;6.78;2.17;;;12.40;99.90;;;;;;20429374;28;20049;-82
2021/09/20 08:00:51;;;;;;;6.35;2.63;;;12.60;99.90;;;;;;20438310;28;20438;-83
2021/09/20 08:10:53;;;;;;;7.47;3.35;;;12.80;99.90;;;;;;20474533;28;20064;-82
2021/09/20 08:20:54;;;;;;;6.65;2.20;;;13.10;99.90;;;;;;20387653;28;20056;-83
2021/09/20 08:30:55;;;;;;;5.85;2.28;;;13.50;99.90;;;;;;20416628;28;20051;-82
2021/09/20 08:40:57;;;;;;;4.53;1.95;;;13.80;99.90;;;;;;20413989;28;20034;-84
2021/09/20 08:50:58;;;;;;;7.03;2.40;;;14.00;99.90;;;;;;20488255;28;20051;-83
2021/09/20 09:01:00;;;;;;;6.90;2.22;;;14.30;99.90;;;;;;20444698;28;20087;-81
2021/09/20 09:11:07;;;;;;;5.63;2.53;;;14.80;99.90;;;;;;20532205;28;20048;-83
2021/09/20 09:21:19;;;;;;;3.67;2.37;;;15.10;99.90;;;;;;20507405;28;20070;-82
2021/09/20 09:31:20;;;;;;;5.68;2.05;;;15.40;99.90;;;;;;20445505;28;20062;-83
2021/09/20 09:41:35;;;;;;;5.85;2.35;;;15.60;99.90;;;;;;20463538;28;20755;-81
2021/09/20 09:52:03;;;;;;;5.28;1.85;;;15.70;99.90;;;;;;20496655;28;20031;-81
2021/09/20 10:02:22;;;;;;;3.05;1.52;;;16.00;99.90;;;;;;20499490;28;20059;-81
2021/09/20 10:12:25;;;;;;;4.35;2.20;;;16.10;99.90;;;;;;20539444;28;20097;-81
2021/09/20 10:22:27;;;;;;;5.82;1.92;;;16.30;99.90;;;;;;20518340;28;20040;-81
2021/09/20 10:32:29;;;;;;;4.07;1.73;;;16.40;99.90;;;;;;20443156;28;20046;-81
2021/09/20 10:42:37;;;;;;;4.45;1.50;;;16.70;99.90;;;;;;20542778;28;20054;-80
2021/09/20 10:53:33;;;;;;;3.47;1.90;;;16.90;99.90;;;;;;20474311;28;20063;-80
2021/09/20 11:03:47;;;;;;;4.38;2.13;;;16.90;99.90;;;;;;20527791;28;20039;-82
2021/09/20 11:14:02;;;;;;;3.83;2.45;;;17.70;99.90;;;;;;20501567;28;20055;-82
2021/09/20 11:24:14;;;;;;;5.22;2.17;;;17.60;99.90;;;;;;20510969;28;20073;-81
2021/09/20 11:34:29;;;;;;;3.92;1.67;;;17.80;99.90;;;;;;20491707;28;20043;-80
2021/09/20 11:44:31;;;;;;;4.30;1.98;;;18.70;99.90;;;;;;20469021;28;20063;-80
2021/09/20 11:54:35;;;;;;;2.53;1.33;;;18.60;99.90;;;;;;20438483;28;20032;-80
2021/09/20 12:04:47;;;;;;;2.97;1.60;;;17.90;99.90;;;;;;20524060;28;20074;-80
2021/09/20 12:15:16;;;;;;;5.88;1.80;;;17.90;99.90;;;;;;20434452;28;20054;-78
2021/09/20 12:25:33;;;;;;;5.47;1.52;;;17.70;99.90;;;;;;20491326;28;20051;-79
2021/09/20 12:35:35;;;;;;;4.43;1.80;;;17.40;99.90;;;;;;20496640;28;20049;-80
2021/09/20 12:45:44;;;;;;;4.57;1.85;;;17.50;99.90;;;;;;20468754;28;20056;-81
2021/09/20 12:55:46;;;;;;;4.10;1.80;;;17.50;99.90;;;;;;20492779;28;20048;-81
2021/09/20 13:05:49;;;;;;;4.57;1.63;;;17.30;99.90;;;;;;20556906;28;20057;-81
2021/09/20 13:15:51;;;;;;;4.47;2.10;;;17.30;99.90;;;;;;20554044;28;20103;-81
2021/09/20 13:25:57;;;;;;;4.80;1.90;;;17.50;99.90;;;;;;20571354;28;20061;-81
2021/09/20 13:36:01;;;;;;;3.47;1.50;;;17.50;99.90;;;;;;20550500;28;20046;-81
2021/09/20 13:46:04;;;;;;;3.67;1.80;;;17.20;99.90;;;;;;20614435;28;20059;-82
2021/09/20 13:56:08;;;;;;;3.65;1.60;;;17.10;99.90;;;;;;20599613;28;20071;-82
2021/09/20 14:06:09;;;;;;;3.45;1.50;;;17.00;99.90;;;;;;20631509;28;20509;-82
2021/09/20 14:16:10;;;;;;;4.03;1.50;;;16.90;99.90;;;;;;20625739;28;20082;-82
2021/09/20 14:26:11;;;;;;;4.65;1.67;;;17.20;99.90;;;;;;20636796;28;20042;-82
2021/09/20 14:36:12;;;;;;;4.30;1.48;;;17.10;99.90;;;;;;20636422;28;20364;-82
2021/09/20 14:46:14;;;;;;;3.65;1.55;;;17.00;99.90;;;;;;20611963;28;20068;-83
2021/09/20 14:56:15;;;;;;;3.05;1.00;;;17.30;99.90;;;;;;20638634;28;20038;-82
2021/09/20 15:06:16;;;;;;;3.03;1.25;;;17.30;99.90;;;;;;20604987;28;20050;-81
2021/09/20 15:16:17;;;;;;;2.58;1.10;;;17.40;99.90;;;;;;20610383;28;20047;-82
2021/09/20 15:26:25;;;;;;;6.85;3.10;;;17.30;99.90;;;;;;20557593;28;20673;-82
2021/09/20 15:36:27;;;;;;;3.80;1.33;;;17.40;99.90;;;;;;20534208;28;20042;-81
2021/09/20 15:46:28;;;;;;;2.60;1.23;;;17.20;99.90;;;;;;20538678;28;20521;-81
2021/09/20 15:56:29;;;;;;;3.85;1.42;;;17.00;99.90;;;;;;20525269;28;20050;-82
2021/09/20 16:06:30;;;;;;;2.25;1.13;;;16.60;99.90;;;;;;20538511;28;20510;-85
2021/09/20 16:16:32;;;;;;;2.35;1.02;;;16.40;99.90;;;;;;20532682;28;20046;-83
2021/09/20 16:26:33;;;;;;;2.80;1.17;;;16.10;99.90;;;;;;20504204;28;20951;-83
2021/09/20 16:36:35;;;;;;;2.67;1.00;;;16.00;99.90;;;;;;20547933;28;20047;-83
2021/09/20 16:46:39;;;;;;;3.45;1.27;;;15.90;99.90;;;;;;20574200;28;20413;-82
2021/09/20 16:56:40;;;;;;;2.22;0.80;;;15.80;99.90;;;;;;20583513;28;20133;-83
2021/09/20 17:06:43;;;;;;;3.53;1.83;;;15.70;99.90;;;;;;20561828;28;20129;-83
2021/09/20 17:16:44;;;;;;;2.60;0.80;;;15.40;99.90;;;;;;20534684;28;20087;-80
2021/09/20 17:26:45;;;;;;;7.57;2.15;;;15.30;99.90;;;;;;20464203;28;20579;-81
2021/09/20 17:36:46;;;;;;;2.65;1.00;;;15.10;99.90;;;;;;20450162;28;20043;-81
2021/09/20 17:46:48;;;;;;;4.88;2.60;;;15.00;99.90;;;;;;20421484;28;20055;-82
2021/09/20 17:56:50;;;;;;;3.00;1.27;;;14.70;99.90;;;;;;20445323;28;20038;-80
2021/09/20 18:06:51;;;;;;;13.70;1.42;;;14.40;99.90;;;;;;20455362;28;20043;-81
2021/09/20 18:16:52;;;;;;;2.17;0.90;;;14.20;99.90;;;;;;20431807;28;20039;-81
2021/09/20 18:26:54;;;;;;;2.17;1.02;;;13.90;99.90;;;;;;20477505;28;20063;-81
2021/09/20 18:36:55;;;;;;;4.07;1.30;;;13.50;99.90;;;;;;20504481;28;20049;-80
2021/09/20 18:46:56;;;;;;;2.25;1.13;;;13.40;99.90;;;;;;20551984;28;20061;-81
2021/09/20 18:56:58;;;;;;;1.65;0.80;;;13.40;99.90;;;;;;20499041;28;20531;-81
2021/09/20 19:06:59;;;;;;;2.13;0.68;;;13.40;99.90;;;;;;20509789;28;20616;-82
2021/09/20 19:17:00;;;;;;;1.77;0.80;;;13.50;99.90;;;;;;20506404;28;20047;-81
2021/09/20 19:27:03;;;;;;;1.73;0.70;;;13.60;99.90;;;;;;20542706;28;20067;-82
2021/09/20 19:37:04;;;;;;;1.80;0.95;;;13.70;99.90;;;;;;20560774;28;20062;-82
2021/09/20 19:47:06;;;;;;;3.30;0.80;;;13.70;99.90;;;;;;20532996;28;20064;-81
2021/09/20 19:57:07;;;;;;;1.25;0.50;;;13.70;99.90;;;;;;20521187;28;20053;-82
2021/09/20 20:07:08;;;;;;;1.27;0.60;;;13.70;99.90;;;;;;20507193;28;20055;-82
2021/09/20 20:17:10;;;;;;;2.63;0.90;;;13.60;99.90;;;;;;20520375;28;20113;-82
2021/09/20 20:27:12;;;;;;;2.30;1.10;;;13.40;99.90;;;;;;20576738;28;20419;-81
2021/09/20 20:37:13;;;;;;;2.08;0.90;;;13.10;99.90;;;;;;20501964;28;20500;-81
2021/09/20 20:47:14;;;;;;;2.70;1.13;;;12.90;99.90;;;;;;20537978;28;20059;-81
2021/09/20 20:57:15;;;;;;;3.05;1.38;;;12.60;99.90;;;;;;20499729;28;20039;-81
2021/09/20 21:07:16;;;;;;;3.05;1.48;;;12.40;99.90;;;;;;20511824;28;20066;-81
2021/09/20 21:17:17;;;;;;;7.13;2.10;;;12.30;99.90;;;;;;20554245;28;20522;-81
2021/09/20 21:27:19;;;;;;;4.38;1.73;;;12.10;99.90;;;;;;20575041;28;20050;-81
2021/09/20 21:37:20;;;;;;;1.85;0.90;;;11.90;99.90;;;;;;20554917;28;20046;-80
2021/09/20 21:47:25;;;;;;;3.30;1.20;;;11.80;99.90;;;;;;20527415;28;20043;-81
2021/09/20 21:57:26;;;;;;;3.00;1.20;;;11.60;99.90;;;;;;20466542;28;20046;-80
2021/09/20 22:07:28;;;;;;;2.30;1.05;;;11.40;99.90;;;;;;20451245;28;20110;-81
2021/09/20 22:17:29;;;;;;;12.88;1.60;;;11.30;99.90;;;;;;20485569;28;20046;-81
2021/09/20 22:27:30;;;;;;;3.78;1.02;;;11.30;99.90;;;;;;20475879;28;20050;-80
2021/09/20 22:37:39;;;;;;;3.80;1.73;;;11.20;99.90;;;;;;20505933;28;20536;-80
2021/09/20 22:47:40;;;;;;;2.53;0.90;;;11.00;99.90;;;;;;20547617;28;20063;-81
2021/09/20 22:57:41;;;;;;;3.13;1.10;;;11.00;99.90;;;;;;20526741;28;20051;-80
2021/09/20 23:07:42;;;;;;;5.53;1.00;;;10.90;99.90;;;;;;20513286;28;20818;-80
2021/09/20 23:17:43;;;;;;;1.98;0.85;;;10.80;99.90;;;;;;20547043;28;20562;-81
2021/09/20 23:27:45;;;;;;;3.45;0.90;;;10.80;99.90;;;;;;20547189;28;20122;-80
2021/09/20 23:37:46;;;;;;;3.15;1.73;;;10.60;99.90;;;;;;20576004;28;20093;-80
2021/09/20 23:47:47;;;;;;;2.50;0.98;;;10.50;99.90;;;;;;20601732;28;20050;-80
2021/09/20 23:57:48;;;;;;;4.38;1.10;;;10.50;99.90;;;;;;20584132;28;20034;-80
